createdAt,value
2023-02-18T00:02:33.395Z,101444.84
2023-02-18T00:06:36.288Z,101451.94
2023-02-18T00:10:41.398Z,101443.28
2023-02-18T00:14:43.205Z,101446.66
2023-02-18T00:18:44.798Z,101445.84
2023-02-18T00:22:46.282Z,101442.47
2023-02-18T00:26:51.904Z,101445.91
2023-02-18T00:30:53.459Z,101441.66
2023-02-18T00:34:55.114Z,101443.34
2023-02-18T00:39:01.419Z,101427.09
2023-02-18T00:43:03.120Z,101449.38
2023-02-18T00:47:05.962Z,101429.34
2023-02-18T00:51:09.203Z,101442.28
2023-02-18T00:55:10.741Z,101447.53
2023-02-18T00:59:12.350Z,101434.56
2023-02-18T01:03:14.329Z,101444.00
2023-02-18T01:07:15.961Z,101434.03
2023-02-18T01:11:19.157Z,101426.09
2023-02-18T01:15:21.589Z,101422.44
2023-02-18T01:19:23.153Z,101421.25
2023-02-18T01:23:25.109Z,101414.72
2023-02-18T01:27:26.686Z,101422.16
2023-02-18T01:31:28.358Z,101437.34
2023-02-18T01:35:30.246Z,101443.31
2023-02-18T01:39:31.879Z,101427.03
2023-02-18T01:43:34.341Z,101428.13
2023-02-18T01:47:37.082Z,101418.25
2023-02-18T01:51:43.270Z,101431.50
2023-02-18T01:55:46.181Z,101434.16
2023-02-18T01:59:56.767Z,101427.38
2023-02-18T02:03:58.550Z,101431.84
2023-02-18T02:08:01.962Z,101431.03
2023-02-18T02:12:35.414Z,101421.44
2023-02-18T02:16:45.471Z,101413.25
2023-02-18T02:21:31.865Z,101397.09
2023-02-18T02:26:04.298Z,101394.16
2023-02-18T02:30:21.155Z,101388.66
2023-02-18T02:34:41.838Z,101393.81
2023-02-18T02:38:49.165Z,101389.88
2023-02-18T02:43:25.864Z,101374.44
2023-02-18T02:47:43.959Z,101358.47
2023-02-18T02:52:10.311Z,101355.91
2023-02-18T02:56:22.243Z,101355.78
2023-02-18T03:00:43.318Z,101353.16
2023-02-18T03:05:24.595Z,101360.91
2023-02-18T03:09:52.384Z,101352.13
2023-02-18T03:14:05.094Z,101347.88
2023-02-18T03:18:21.445Z,101348.63
2023-02-18T03:22:29.891Z,101346.06
2023-02-18T03:26:34.569Z,101333.97
2023-02-18T03:30:39.553Z,101340.63
2023-02-18T03:34:45.900Z,101343.78
2023-02-18T03:38:59.016Z,101353.09
2023-02-18T03:43:00.638Z,101348.78
2023-02-18T03:47:02.484Z,101346.81
2023-02-18T03:51:04.224Z,101339.88
2023-02-18T03:55:06.280Z,101342.47
2023-02-18T03:59:08.372Z,101331.19
2023-02-18T04:03:10.076Z,101331.13
2023-02-18T04:07:11.704Z,101331.00
2023-02-18T04:11:13.520Z,101328.38
2023-02-18T04:15:15.132Z,101330.13
2023-02-18T04:19:16.862Z,101341.22
2023-02-18T04:23:18.388Z,101348.09
2023-02-18T04:27:20.002Z,101361.88
2023-02-18T04:31:21.830Z,101357.88
2023-02-18T04:35:23.675Z,101347.75
2023-02-18T04:39:25.219Z,101350.38
2023-02-18T04:43:26.925Z,101359.97
2023-02-18T04:47:28.463Z,101358.09
2023-02-18T04:51:30.033Z,101352.69
2023-02-18T04:55:31.530Z,101340.66
2023-02-18T04:59:33.236Z,101357.88
2023-02-18T05:03:34.999Z,101351.41
2023-02-18T05:07:36.827Z,101337.19
2023-02-18T05:11:38.314Z,101334.84
2023-02-18T05:15:39.938Z,101344.13
2023-02-18T05:19:41.596Z,101342.16
2023-02-18T05:23:43.130Z,101345.38
2023-02-18T05:27:44.712Z,101344.31
2023-02-18T05:31:46.356Z,101343.38
2023-02-18T05:35:48.885Z,101346.00
2023-02-18T05:39:50.474Z,101345.13
2023-02-18T05:44:10.534Z,101358.91
2023-02-18T05:48:12.122Z,101364.84
2023-02-18T05:52:13.720Z,101355.44
2023-02-18T05:56:15.207Z,101337.28
2023-02-18T06:00:17.622Z,101339.25
2023-02-18T06:04:19.193Z,101339.72
2023-02-18T06:08:20.718Z,101340.84
2023-02-18T06:12:22.277Z,101344.53
2023-02-18T06:16:23.966Z,101324.19
2023-02-18T06:20:25.586Z,101331.31
2023-02-18T06:24:27.086Z,101324.56
2023-02-18T06:28:28.700Z,101328.13
2023-02-18T06:32:30.218Z,101326.56
2023-02-18T06:36:31.770Z,101327.53
2023-02-18T06:40:33.368Z,101315.50
2023-02-18T06:44:36.886Z,101306.91
2023-02-18T06:48:39.524Z,101298.38
2023-02-18T06:52:41.080Z,101306.22
2023-02-18T06:56:42.823Z,101287.34
2023-02-18T07:00:44.513Z,101269.50
2023-02-18T07:04:46.477Z,101290.03
2023-02-18T07:08:48.169Z,101282.34
2023-02-18T07:12:50.108Z,101285.00
2023-02-18T07:16:51.840Z,101295.44
2023-02-18T07:20:53.444Z,101292.84
2023-02-18T07:24:55.017Z,101281.78
2023-02-18T07:28:56.591Z,101286.94
2023-02-18T07:32:58.199Z,101278.47
2023-02-18T07:36:59.803Z,101274.25
2023-02-18T07:41:01.602Z,101276.19
2023-02-18T07:45:03.165Z,101263.41
2023-02-18T07:49:04.724Z,101256.91
2023-02-18T07:53:06.893Z,101268.38
2023-02-18T07:57:08.505Z,101261.69
2023-02-18T08:01:12.032Z,101266.88
2023-02-18T08:05:13.603Z,101258.59
2023-02-18T08:09:16.037Z,101263.75
2023-02-18T08:13:18.333Z,101264.72
2023-02-18T08:17:19.835Z,101255.44
2023-02-18T08:21:23.185Z,101261.31
2023-02-18T08:25:29.811Z,101259.53
2023-02-18T08:29:31.668Z,101256.06
2023-02-18T08:33:33.670Z,101254.50
2023-02-18T08:37:52.249Z,101257.13
2023-02-18T08:41:57.147Z,101250.53
2023-02-18T08:45:59.325Z,101242.00
2023-02-18T08:50:00.957Z,101239.75
2023-02-18T08:54:02.864Z,101244.53
2023-02-18T08:58:06.109Z,101232.66
2023-02-18T09:02:07.707Z,101234.47
2023-02-18T09:06:09.349Z,101227.66
2023-02-18T09:10:11.083Z,101237.16
2023-02-18T09:14:12.913Z,101237.91
2023-02-18T09:18:14.562Z,101255.94
2023-02-18T09:22:16.129Z,101240.38
2023-02-18T09:26:21.487Z,101245.53
2023-02-18T09:30:23.167Z,101250.66
2023-02-18T09:34:24.766Z,101252.13
2023-02-18T09:38:26.273Z,101258.97
2023-02-18T09:42:33.106Z,101251.34
2023-02-18T09:46:40.798Z,101247.13
2023-02-18T09:50:42.857Z,101243.91
2023-02-18T09:54:44.489Z,101246.78
2023-02-18T09:58:47.716Z,101224.03
2023-02-18T10:02:58.441Z,101247.41
2023-02-18T10:07:03.619Z,101239.50
2023-02-18T10:11:13.611Z,101252.22
2023-02-18T10:15:22.811Z,101245.38
2023-02-18T10:19:31.638Z,101241.88
2023-02-18T10:23:35.806Z,101242.69
2023-02-18T10:27:39.231Z,101241.69
2023-02-18T10:31:45.569Z,101250.31
2023-02-18T10:36:00.420Z,101249.75
2023-02-18T10:40:19.104Z,101249.78
2023-02-18T10:44:39.835Z,101254.63
2023-02-18T10:49:07.188Z,101248.72
2023-02-18T10:53:14.116Z,101259.00
2023-02-18T10:57:21.843Z,101254.69
2023-02-18T11:01:23.705Z,101260.72
2023-02-18T11:05:27.556Z,101254.69
2023-02-18T11:09:45.705Z,101264.16
2023-02-18T11:13:54.456Z,101265.91
2023-02-18T11:18:17.895Z,101253.88
2023-02-18T11:22:23.241Z,101257.84
2023-02-18T11:26:31.271Z,101257.78
2023-02-18T11:30:36.536Z,101250.13
2023-02-18T11:34:43.081Z,101253.28
2023-02-18T11:38:47.653Z,101249.81
2023-02-18T11:42:49.626Z,101257.66
2023-02-18T11:47:14.201Z,101255.19
2023-02-18T11:51:24.995Z,101251.06
2023-02-18T11:55:33.127Z,101238.25
2023-02-18T11:59:37.833Z,101235.50
2023-02-18T12:03:44.630Z,101232.72
2023-02-18T12:07:59.294Z,101221.66
2023-02-18T12:12:06.522Z,101213.03
2023-02-18T12:16:36.293Z,101202.28
2023-02-18T12:21:00.191Z,101200.28
2023-02-18T12:25:20.249Z,101195.47
2023-02-18T12:29:51.058Z,101170.13
2023-02-18T12:33:52.627Z,101171.69
2023-02-18T12:38:04.060Z,101161.22
2023-02-18T12:42:12.568Z,101157.34
2023-02-18T12:46:17.189Z,101158.44
2023-02-18T12:50:32.928Z,101151.66
2023-02-18T12:55:06.128Z,101148.91
2023-02-18T12:59:14.146Z,101135.59
2023-02-18T13:03:28.027Z,101134.16
2023-02-18T13:07:52.141Z,101135.31
2023-02-18T13:12:04.575Z,101119.81
2023-02-18T13:16:13.299Z,101098.34
2023-02-18T13:20:26.333Z,101111.16
2023-02-18T13:24:32.249Z,101092.06
2023-02-18T13:28:42.652Z,101089.13
2023-02-18T13:33:23.603Z,101095.09
2023-02-18T13:37:38.247Z,101074.72
2023-02-18T13:41:42.243Z,101062.31
2023-02-18T13:45:44.106Z,101071.53
2023-02-18T13:49:48.139Z,101053.16
2023-02-18T13:53:52.329Z,101053.31
2023-02-18T13:57:55.690Z,101046.22
2023-02-18T14:02:27.661Z,101036.31
2023-02-18T14:06:31.773Z,101058.59
2023-02-18T14:10:38.403Z,101049.91
2023-02-18T14:14:40.303Z,101044.31
2023-02-18T14:18:41.826Z,101052.06
2023-02-18T14:22:47.533Z,101056.94
2023-02-18T14:26:49.596Z,101048.66
2023-02-18T14:30:52.046Z,101045.03
2023-02-18T14:35:03.977Z,101050.13
2023-02-18T14:39:24.943Z,101069.63
2023-02-18T14:43:45.795Z,101063.47
2023-02-18T14:48:25.256Z,101080.19
2023-02-18T14:52:42.540Z,101081.81
2023-02-18T14:57:09.370Z,101097.91
2023-02-18T15:01:21.850Z,101090.25
2023-02-18T15:05:26.549Z,101091.59
2023-02-18T15:09:28.364Z,101097.72
2023-02-18T15:13:36.605Z,101113.16
2023-02-18T15:17:45.855Z,101114.75
2023-02-18T15:21:49.936Z,101121.75
2023-02-18T15:25:53.270Z,101127.50
2023-02-18T15:30:21.730Z,101115.09
2023-02-18T15:34:37.814Z,101123.91
2023-02-18T15:38:42.774Z,101123.63
2023-02-18T15:42:49.058Z,101129.84
2023-02-18T15:46:51.553Z,101140.50
2023-02-18T15:50:58.396Z,101139.88
2023-02-18T15:55:07.709Z,101136.88
2023-02-18T15:59:21.212Z,101139.22
2023-02-18T16:03:44.143Z,101142.22
2023-02-18T16:07:52.868Z,101144.69
2023-02-18T16:12:02.005Z,101159.84
2023-02-18T16:16:03.956Z,101151.66
2023-02-18T16:20:36.112Z,101162.38
2023-02-18T16:24:41.309Z,101162.25
2023-02-18T16:28:43.892Z,101169.00
2023-02-18T16:32:46.042Z,101171.28
2023-02-18T16:37:07.894Z,101177.28
2023-02-18T16:41:12.084Z,101182.41
2023-02-18T16:45:13.709Z,101179.34
2023-02-18T16:49:15.308Z,101192.91
2023-02-18T16:53:16.987Z,101201.50
2023-02-18T16:57:18.666Z,101199.09
2023-02-18T17:01:34.459Z,101197.16
2023-02-18T17:05:39.400Z,101195.31
2023-02-18T17:09:41.211Z,101200.66
2023-02-18T17:13:42.949Z,101199.91
2023-02-18T17:17:44.507Z,101208.47
2023-02-18T17:21:48.582Z,101205.13
2023-02-18T17:25:52.098Z,101209.25
2023-02-18T17:29:53.729Z,101213.75
2023-02-18T17:33:58.595Z,101231.56
2023-02-18T17:38:00.222Z,101226.31
2023-02-18T17:42:01.716Z,101239.09
2023-02-18T17:46:03.824Z,101237.97
2023-02-18T17:50:05.929Z,101244.88
2023-02-18T17:54:16.208Z,101235.97
2023-02-18T17:58:17.877Z,101229.25
2023-02-18T18:02:27.138Z,101215.38
2023-02-18T18:06:28.887Z,101213.25
2023-02-18T18:10:34.646Z,101213.00
2023-02-18T18:14:36.275Z,101208.47
2023-02-18T18:18:37.864Z,101211.53
2023-02-18T18:22:39.475Z,101200.97
2023-02-18T18:26:41.092Z,101209.28
2023-02-18T18:30:45.725Z,101210.56
2023-02-18T18:34:49.098Z,101194.50
2023-02-18T18:38:51.139Z,101220.66
2023-02-18T18:42:56.989Z,101213.84
2023-02-18T18:46:58.612Z,101221.69
2023-02-18T18:51:02.300Z,101219.84
2023-02-18T18:55:03.911Z,101232.72
2023-02-18T18:59:05.510Z,101224.03
2023-02-18T19:03:07.183Z,101224.41
2023-02-18T19:07:08.708Z,101216.44
2023-02-18T19:11:12.614Z,101223.84
2023-02-18T19:15:20.757Z,101223.91
2023-02-18T19:19:24.493Z,101225.47
2023-02-18T19:23:26.128Z,101229.59
2023-02-18T19:27:27.617Z,101216.81
2023-02-18T19:31:29.262Z,101218.38
2023-02-18T19:35:31.400Z,101219.13
2023-02-18T19:39:34.935Z,101228.59
2023-02-18T19:43:36.518Z,101224.38
2023-02-18T19:47:38.530Z,101224.47
2023-02-18T19:51:40.055Z,101217.66
2023-02-18T19:55:41.782Z,101224.66
2023-02-18T19:59:43.747Z,101227.28
2023-02-18T20:03:45.412Z,101218.88
2023-02-18T20:07:47.188Z,101217.31
2023-02-18T20:11:48.858Z,101223.25
2023-02-18T20:15:50.437Z,101216.69
2023-02-18T20:19:52.096Z,101213.38
2023-02-18T20:23:54.721Z,101210.38
2023-02-18T20:28:01.217Z,101220.50
2023-02-18T20:32:05.266Z,101214.59
2023-02-18T20:36:08.500Z,101214.50
2023-02-18T20:40:10.324Z,101209.25
2023-02-18T20:44:13.201Z,101206.56
2023-02-18T20:48:14.705Z,101204.19
2023-02-18T20:52:16.366Z,101207.47
2023-02-18T20:56:19.880Z,101202.63
2023-02-18T21:00:22.445Z,101191.38
2023-02-18T21:04:24.057Z,101200.31
2023-02-18T21:08:26.962Z,101195.66
2023-02-18T21:12:28.463Z,101201.44
2023-02-18T21:16:32.286Z,101187.47
2023-02-18T21:20:33.941Z,101184.84
2023-02-18T21:24:35.586Z,101183.69
2023-02-18T21:28:37.813Z,101180.13
2023-02-18T21:32:39.381Z,101174.78
2023-02-18T21:36:41.932Z,101178.91
2023-02-18T21:40:44.500Z,101174.50
2023-02-18T21:44:47.226Z,101171.13
2023-02-18T21:49:08.231Z,101183.28
2023-02-18T21:53:09.777Z,101177.28
2023-02-18T21:57:13.754Z,101168.84
2023-02-18T22:01:15.395Z,101169.66
2023-02-18T22:05:17.089Z,101173.16
2023-02-18T22:09:19.101Z,101167.16
2023-02-18T22:13:20.689Z,101167.44
2023-02-18T22:17:22.289Z,101161.56
2023-02-18T22:21:24.640Z,101165.09
2023-02-18T22:25:26.233Z,101161.63
2023-02-18T22:29:29.494Z,101160.84
2023-02-18T22:33:30.992Z,101151.72
2023-02-18T22:37:35.495Z,101140.59
2023-02-18T22:41:37.280Z,101140.72
2023-02-18T22:45:38.853Z,101136.47
2023-02-18T22:49:40.647Z,101133.91
2023-02-18T22:53:43.672Z,101138.03
2023-02-18T22:57:45.207Z,101142.16
2023-02-18T23:01:49.430Z,101141.81
2023-02-18T23:05:51.261Z,101130.69
2023-02-18T23:09:52.811Z,101134.75
2023-02-18T23:14:14.317Z,101121.28
2023-02-18T23:18:15.904Z,101111.81
2023-02-18T23:22:33.405Z,101117.03
2023-02-18T23:26:35.036Z,101122.84
2023-02-18T23:30:36.661Z,101129.72
2023-02-18T23:34:38.547Z,101134.84
2023-02-18T23:38:40.123Z,101135.50
2023-02-18T23:42:41.773Z,101122.69
2023-02-18T23:46:44.556Z,101123.00
2023-02-18T23:50:46.140Z,101132.53
2023-02-18T23:54:47.712Z,101136.19
2023-02-18T23:58:57.128Z,101144.09
